AirNav   ProFlight Series 2 Aviation Headset
 
 719 users online  

FL17 Ruckel Airport
Niceville, Florida, USA

GOING TO NICEVILLE?


FAA INFORMATION EFFECTIVE 18 JUNE 2020

Location

FAA Identifier: FL17
Lat/Long: 30-31-10.7080N 086-26-17.8150W
30-31.178467N 086-26.296917W
30.5196411,-86.4382819
(estimated)
Elevation: 67 ft. / 20 m (estimated)
Variation: 00E (1985)
From city: 3 miles E of NICEVILLE, FL
Time zone: UTC -5 (UTC -6 during Standard Time)
Zip code: 32578

Airport Operations

Airport use: Private use. Permission required prior to landing
Activation date: 02/1963
Control tower: no
ARTCC: JACKSONVILLE CENTER
FSS: GAINESVILLE FLIGHT SERVICE STATION
Attendance: UNATNDD
Wind indicator: yes
Segmented circle: no
Lights: SS-SR

Airport Communications

WX ASOS at DTS (7 nm S): PHONE 850-654-7128
WX ASOS at CEW (16 nm N): 119.275 (850-682-1237)
WX AWOS-3P at 54J (19 nm NE): 118.725 (850-892-0147)

Nearby radio navigation aids

VOR radial/distance  VOR name  Freq  Var
CEWr143/22.2CRESTVIEW VORTAC115.9003E

 
NDB name  Hdg/Dist  Freq  Var  ID
LYNNE293/35.927804WPFN .--. ..-. -.
PICKENS085/38.632602WPKZ .--. -.- --..

Airport Services

Fuel available: 100
Airframe service: NONE
Powerplant service: NONE

Runway Information

Runway 18/36

Dimensions: 3300 x 75 ft. / 1006 x 23 m
Surface: turf
Runway edge lights: low intensity
RUNWAY 18  RUNWAY 36
Traffic pattern: leftright
Obstructions: trees, 800 ft. from runwaytrees, 800 ft. from runway

Airport Ownership and Management from official FAA records

Ownership: Privately-owned
Owner: RUCKEL PROPERTIES, INC.
1003C JOHN SIMS PARKWAY EAST
NICEVILLE, FL 32578
Phone 850-678-2223
EMAIL: BUSINESSOFFICE@RUCKELPROPERTIES.COM
Manager: RUCKEL PROPERTIES, INC.
1003C JOHN SIMS PARKWAY EAST
NICEVILLE, FL 32578
Phone 850-678-2223

Airport Operational Statistics

Aircraft based on the field: 25
Single engine airplanes: 25
    

Additional Remarks

FOR CD CTC EGLIN APCH 850-882-9152 OR 850-882-9151.

Instrument Procedures

There are no published instrument procedures at FL17.

Some nearby airports with instrument procedures:

KVPS - Eglin Air Force Base/Destin-Fort Walton Beach Airport (5 nm SW)
KDTS - Destin Executive Airport (7 nm S)
KEGI - Duke Field (Eglin AF Aux Nr 3) Airport (9 nm NW)
KHRT - Hurlburt Field Airport (14 nm SW)
KCEW - Bob Sikes Airport (16 nm N)
54J - DeFuniak Springs Airport (19 nm NE)
 
Loc | Ops | Rwys | IFR | FBO | Links
Com | Nav | Svcs | Stats | Notes

Continental Services
AirBoss

 
Area around FL17 (Ruckel Airport)
 
Road maps at: MapQuest Bing Google
 
Aerial photo
WARNING: Photo may not be current or correct
Aerial photo of FL17 (Ruckel Airport)
Photo by Scott Jackson - PhotosFlorida.com
Photo taken 02-Dec-2005

Do you have a better or more recent aerial photo of Ruckel Airport that you would like to share? If so, please send us your photo.

 
Sectional chart

 
Airport distance calculator
Flying to Ruckel Airport? Find the distance to fly.

From to FL17

Sunrise and sunset
Times for 05-Jul-2020
 Local
(UTC-5)
 Zulu
(UTC)
Morning civil twilight05:2310:23
Sunrise05:5010:50
Sunset19:5100:51
Evening civil twilight20:1801:18

Current date and time
Zulu (UTC)  05-Jul-2020 13:19:56
Local (UTC-5)  05-Jul-2020 08:19:56
 
METAR
KVPS 
5nm SW 
051256Z AUTO 14004KT 10SM -RA FEW041 FEW190 24/22 A2992 RMK AO2 DZB03E12RAB21 TSB13E15 SLP138 P0002 T02370219 $
KDTS 
7nm S 
051253Z 15003KT 3SM RA BR BKN034 OVC075 24/22 A2992 RMK AO2 LTG DSNT S AND SW RAB00 TSE09B11 SLP131 P0077 T02390222
KEGI 
8nm NW 
051256Z AUTO 18008KT 10SM FEW022 SCT030 25/23 A2992 RMK AO2 SLP131 T02460226 $
KHRT 
13nm SW 
051301Z 17012KT 5SM -SHRA VCTS SBKN014 BKN020 OVC040 24/23 A2991 RMK AO2A LTG DSNT SE SLP130 $
KCEW 
15nm N 
051253Z AUTO 10004KT 10SM SCT006 BKN036 26/23 A2993 RMK AO2 LTG DSNT NW SLP132 T02610228
K54J 
19nm NE 
051255Z AUTO 14004KT 10SM SCT012 SCT050 25/22 A2994 RMK AO2 LTG DSNT S AND SW T02460218
TAF
KVPS 
5nm SW 
051200Z 0512/0615 VRB05KT 9000 -SHRA VCTS FEW017CB BKN150 BKN250 QNH2988INS TEMPO 0512/0515 9000 -TSRA BKN017CB BKN022 BKN120 BECMG 0515/0516 16006KT 9999 VCSH FEW020 BKN160 BKN250 QNH2987INS TEMPO 0518/0522 18010G18KT 8000 -TSRA SCT015CB BKN025 BECMG 0521/0522 29005KT 9999 NSW SCT025 BKN180 BKN250 QNH2982INS TEMPO 0603/0606 9000 -SHRA VCTS BKN022CB BKN070 BECMG 0612/0613 VRB05KT 9999 -SHRA VCTS SCT017CB BKN140 BKN250 QNH2986INS TX30/0520Z TN25/0512Z
NOTAMs
Click for the latest NOTAMs
NOTAMs are issued by the DoD/FAA and will open in a separate window not controlled by AirNav.

 

 
 

Would you like to see your business listed on this page?

 If your business provides an interesting product or service to pilots, flight crews, aircraft, or users of the Ruckel Airport, you should consider listing it here.  To start the listing process, click on the button below
 
Add a business
 

Other Pages about Ruckel Airport

www.okaloosacountyairports.com/air_airports.html
 
Update a link
 
Copyright © AirNav, LLC. All rights reserved. Privacy Policy  Contact